Terminal Aerodrome Forecast
Issued by NWS Wilmington, OH

Home | Current Version | Previous Version | Text Only | Print | Product List | Glossary On
Versions: 1 2 3 4 5 6 7 8 9 10 11 12 13 14 15 16 17
000
FTUS41 KILN 241130
TAFDAY
TAF
KDAY 241130Z 2412/2512 19008KT P6SM SKC
     FM241600 20012G20KT P6SM FEW250
     FM242200 20012KT P6SM SCT250
     FM250200 20012KT P6SM BKN250 WS020/22040KT
     FM250800 23012KT P6SM BKN090=

USA.gov is the U.S. government's official web portal to all federal, state and local government web resources and services.